createdAt,value
2023-06-30T00:01:18.729Z,10.87
2023-06-30T00:05:19.872Z,11.63
2023-06-30T00:09:21.294Z,10.83
2023-06-30T00:13:22.378Z,12.10
2023-06-30T00:17:23.799Z,12.33
2023-06-30T00:21:25.259Z,10.17
2023-06-30T00:25:26.408Z,15.43
2023-06-30T00:29:27.551Z,10.93
2023-06-30T00:33:28.710Z,11.37
2023-06-30T00:37:29.902Z,10.97
2023-06-30T00:41:30.919Z,10.50
2023-06-30T00:45:32.500Z,11.00
2023-06-30T00:49:34.033Z,9.63
2023-06-30T00:53:35.406Z,10.60
2023-06-30T00:57:36.544Z,10.63
2023-06-30T01:01:41.572Z,10.60
2023-06-30T01:05:49.216Z,12.73
2023-06-30T01:10:03.326Z,11.50
2023-06-30T01:14:07.324Z,13.37
2023-06-30T01:18:11.089Z,12.77
2023-06-30T01:22:25.044Z,12.50
2023-06-30T01:26:26.486Z,13.53
2023-06-30T01:30:31.080Z,15.37
2023-06-30T01:34:32.579Z,14.50
2023-06-30T01:38:33.874Z,14.87
2023-06-30T01:42:37.445Z,15.37
2023-06-30T01:46:38.660Z,14.23
2023-06-30T01:50:40.208Z,15.00
2023-06-30T01:54:41.527Z,16.03
2023-06-30T01:58:43.281Z,19.10
2023-06-30T02:02:44.567Z,18.40
2023-06-30T02:06:45.719Z,16.97
2023-06-30T02:10:46.982Z,15.77
2023-06-30T02:14:48.280Z,18.73
2023-06-30T02:18:51.391Z,14.77
2023-06-30T02:22:52.699Z,14.10
2023-06-30T02:26:54.873Z,15.30
2023-06-30T02:30:56.303Z,15.03
2023-06-30T02:34:57.376Z,16.17
2023-06-30T02:38:58.561Z,16.43
2023-06-30T02:43:00.125Z,20.10
2023-06-30T02:47:01.230Z,18.00
2023-06-30T02:51:02.447Z,18.20
2023-06-30T02:55:04.041Z,19.37
2023-06-30T02:59:05.093Z,22.87
2023-06-30T03:03:06.387Z,25.90
2023-06-30T03:07:07.499Z,26.23
2023-06-30T03:11:08.548Z,28.77
2023-06-30T03:15:10.038Z,32.27
2023-06-30T03:19:11.089Z,29.17
2023-06-30T03:23:15.413Z,28.57
2023-06-30T03:27:16.577Z,35.50
2023-06-30T03:31:17.986Z,34.17
2023-06-30T03:35:18.961Z,34.80
2023-06-30T03:39:20.119Z,35.00
2023-06-30T03:43:23.009Z,36.57
2023-06-30T03:47:24.189Z,33.03
2023-06-30T03:51:25.285Z,34.40
2023-06-30T03:55:26.432Z,34.77
2023-06-30T03:59:27.604Z,34.97
2023-06-30T04:03:28.735Z,36.20
2023-06-30T04:07:29.979Z,34.93
2023-06-30T04:11:30.997Z,36.67
2023-06-30T04:15:32.023Z,36.03
2023-06-30T04:19:33.173Z,43.00
2023-06-30T04:23:34.175Z,39.80
2023-06-30T04:27:36.037Z,43.33
2023-06-30T04:31:37.066Z,42.60
2023-06-30T04:35:38.076Z,45.00
2023-06-30T04:39:39.504Z,49.73
2023-06-30T04:43:40.834Z,46.20
2023-06-30T04:47:42.712Z,51.57
2023-06-30T04:51:43.777Z,58.93
2023-06-30T04:55:45.503Z,54.17
2023-06-30T04:59:47.007Z,53.70
2023-06-30T05:03:48.545Z,60.43
2023-06-30T05:07:49.873Z,48.53
2023-06-30T05:11:51.469Z,51.40
2023-06-30T05:15:52.515Z,52.00
2023-06-30T05:19:53.839Z,50.57
2023-06-30T05:23:56.182Z,52.27
2023-06-30T05:27:57.170Z,47.63
2023-06-30T05:31:58.524Z,50.80
2023-06-30T05:35:59.468Z,51.50
2023-06-30T05:40:00.617Z,48.20
2023-06-30T05:44:01.710Z,50.83
2023-06-30T05:48:03.180Z,48.93
2023-06-30T05:52:04.744Z,47.13
2023-06-30T05:56:05.754Z,48.00
2023-06-30T06:00:08.322Z,55.47
2023-06-30T06:04:11.118Z,54.53
2023-06-30T06:08:12.394Z,56.63
2023-06-30T06:12:13.456Z,54.10
2023-06-30T06:16:14.795Z,57.63
2023-06-30T06:20:15.840Z,56.43
2023-06-30T06:24:19.748Z,55.40
2023-06-30T06:28:21.019Z,51.27
2023-06-30T06:32:22.058Z,51.53
2023-06-30T06:36:23.022Z,42.47
2023-06-30T06:40:24.250Z,40.63
2023-06-30T06:44:25.267Z,48.60
2023-06-30T06:48:27.942Z,28.23
2023-06-30T06:52:29.234Z,21.93
2023-06-30T06:56:30.403Z,15.67
2023-06-30T07:00:31.554Z,11.90
2023-06-30T07:04:32.715Z,11.17
2023-06-30T07:08:35.709Z,7.60
2023-06-30T07:12:36.841Z,6.20
2023-06-30T07:16:38.047Z,6.27
2023-06-30T07:20:39.302Z,6.70
2023-06-30T07:24:43.855Z,5.60
2023-06-30T07:28:43.604Z,6.10
2023-06-30T07:32:44.833Z,5.20
2023-06-30T07:36:46.859Z,5.23
2023-06-30T07:40:55.770Z,5.03
2023-06-30T07:44:51.013Z,5.43
2023-06-30T07:48:52.333Z,6.43
2023-06-30T07:52:53.696Z,5.33
2023-06-30T07:56:54.881Z,5.87
2023-06-30T08:00:55.876Z,5.37
2023-06-30T08:04:57.053Z,4.70
2023-06-30T08:08:59.155Z,4.90
2023-06-30T08:13:00.369Z,4.67
2023-06-30T08:17:01.686Z,3.53
2023-06-30T08:21:03.778Z,2.47
2023-06-30T08:25:05.508Z,3.10
2023-06-30T08:29:06.811Z,3.53
2023-06-30T08:33:07.950Z,2.53
2023-06-30T08:37:09.175Z,2.10
2023-06-30T08:41:11.587Z,1.80
2023-06-30T08:45:14.145Z,2.00
2023-06-30T08:49:15.338Z,1.97
2023-06-30T08:53:19.185Z,1.47
2023-06-30T08:57:21.617Z,1.23
2023-06-30T09:01:23.385Z,1.17
2023-06-30T09:05:26.136Z,2.07
2023-06-30T09:09:34.110Z,2.50
2023-06-30T09:13:39.175Z,2.07
2023-06-30T09:17:40.566Z,1.50
2023-06-30T09:21:42.223Z,0.93
2023-06-30T09:25:43.708Z,0.83
2023-06-30T09:29:54.422Z,1.20
2023-06-30T09:33:59.406Z,2.00
2023-06-30T09:38:00.476Z,1.23
2023-06-30T09:42:01.727Z,0.70
2023-06-30T09:46:03.148Z,1.13
2023-06-30T09:50:09.644Z,0.83
2023-06-30T09:54:11.043Z,1.53
2023-06-30T09:58:12.292Z,1.07
2023-06-30T10:02:15.582Z,2.00
2023-06-30T10:06:26.198Z,0.60
2023-06-30T10:10:28.467Z,0.83
2023-06-30T10:14:32.195Z,0.83
2023-06-30T10:18:39.908Z,1.80
2023-06-30T10:22:43.240Z,1.20
2023-06-30T10:26:46.906Z,1.40
2023-06-30T10:30:51.365Z,1.77
2023-06-30T10:34:52.916Z,2.33
2023-06-30T10:38:54.695Z,1.73
2023-06-30T10:42:57.741Z,1.77
2023-06-30T10:46:59.349Z,1.30
2023-06-30T10:51:04.553Z,1.53
2023-06-30T10:55:07.115Z,2.10
2023-06-30T10:59:09.497Z,2.10
2023-06-30T11:03:11.057Z,2.23
2023-06-30T11:07:18.707Z,2.03
2023-06-30T11:11:19.810Z,2.93
2023-06-30T11:15:36.478Z,2.07
2023-06-30T11:19:37.795Z,2.73
2023-06-30T11:23:40.198Z,2.93
2023-06-30T11:27:41.437Z,3.00
2023-06-30T11:31:42.607Z,7.27
2023-06-30T11:35:47.568Z,3.10
2023-06-30T11:39:57.732Z,3.67
2023-06-30T11:43:58.786Z,3.50
2023-06-30T11:48:00.757Z,4.20
2023-06-30T11:52:02.560Z,5.03
2023-06-30T11:56:03.962Z,3.57
2023-06-30T12:00:14.498Z,3.20
2023-06-30T12:04:19.515Z,2.80
2023-06-30T12:08:21.148Z,4.50
2023-06-30T12:12:28.466Z,2.60
2023-06-30T12:16:41.507Z,3.53
2023-06-30T12:20:44.544Z,4.73
2023-06-30T12:24:50.322Z,6.60
2023-06-30T12:28:51.364Z,5.70
2023-06-30T12:33:00.574Z,5.37
2023-06-30T12:37:02.424Z,5.80
2023-06-30T12:41:03.605Z,6.50
2023-06-30T12:45:06.093Z,6.43
2023-06-30T12:49:07.108Z,6.47
2023-06-30T12:53:08.430Z,4.77
2023-06-30T12:57:09.576Z,5.30
2023-06-30T13:01:10.592Z,3.87
2023-06-30T13:05:11.614Z,5.50
2023-06-30T13:09:13.156Z,4.83
2023-06-30T13:13:14.329Z,4.60
2023-06-30T13:17:15.452Z,3.80
2023-06-30T13:21:17.122Z,5.23
2023-06-30T13:25:19.425Z,5.97
2023-06-30T13:29:20.543Z,4.63
2023-06-30T13:33:22.979Z,4.60
2023-06-30T13:37:24.066Z,4.80
2023-06-30T13:41:26.571Z,6.00
2023-06-30T13:45:27.758Z,5.17
2023-06-30T13:49:28.906Z,5.33
2023-06-30T13:53:30.030Z,4.83
2023-06-30T13:57:31.096Z,5.23
2023-06-30T14:01:32.259Z,6.50
2023-06-30T14:05:33.372Z,4.20
2023-06-30T14:09:34.505Z,4.00
2023-06-30T14:13:35.554Z,4.30
2023-06-30T14:17:36.669Z,4.03
2023-06-30T14:21:37.824Z,2.83
2023-06-30T14:25:38.881Z,3.60
2023-06-30T14:29:41.893Z,5.73
2023-06-30T14:33:43.065Z,2.97
2023-06-30T14:37:44.170Z,4.67
2023-06-30T14:41:53.764Z,3.17
2023-06-30T14:45:48.475Z,5.30
2023-06-30T14:49:49.646Z,3.80
2023-06-30T14:53:50.671Z,2.80
2023-06-30T14:57:51.672Z,4.90
2023-06-30T15:01:52.715Z,3.53
2023-06-30T15:05:53.883Z,10.20
2023-06-30T15:09:54.977Z,3.77
2023-06-30T15:13:56.001Z,3.87
2023-06-30T15:18:16.976Z,4.87
2023-06-30T15:22:18.225Z,2.53
2023-06-30T15:26:19.357Z,9.73
2023-06-30T15:30:21.024Z,3.20
2023-06-30T15:34:22.339Z,4.53
2023-06-30T15:38:24.872Z,3.27
2023-06-30T15:42:26.312Z,5.23
2023-06-30T15:46:27.637Z,4.10
2023-06-30T15:50:29.788Z,4.60
2023-06-30T15:54:31.021Z,3.53
2023-06-30T15:58:32.124Z,2.87
2023-06-30T16:02:36.227Z,3.17
2023-06-30T16:06:37.329Z,3.27
2023-06-30T16:10:38.806Z,3.17
2023-06-30T16:14:40.060Z,6.47
2023-06-30T16:18:41.210Z,4.67
2023-06-30T16:22:42.344Z,2.70
2023-06-30T16:26:44.387Z,2.97
2023-06-30T16:30:45.626Z,4.37
2023-06-30T16:34:46.894Z,2.87
2023-06-30T16:38:48.094Z,4.03
2023-06-30T16:42:49.897Z,2.50
2023-06-30T16:46:50.984Z,3.47
2023-06-30T16:50:52.183Z,4.60
2023-06-30T16:54:53.224Z,2.47
2023-06-30T16:58:54.444Z,3.13
2023-06-30T17:02:56.033Z,3.27
2023-06-30T17:06:57.524Z,4.17
2023-06-30T17:10:58.699Z,2.20
2023-06-30T17:14:59.840Z,5.30
2023-06-30T17:19:01.023Z,3.17
2023-06-30T17:23:02.286Z,3.00
2023-06-30T17:27:03.586Z,2.40
2023-06-30T17:31:04.999Z,2.37
2023-06-30T17:35:07.903Z,4.13
2023-06-30T17:39:09.001Z,3.40
2023-06-30T17:43:12.300Z,2.43
2023-06-30T17:47:13.392Z,5.97
2023-06-30T17:51:14.675Z,8.40
2023-06-30T17:55:15.710Z,2.00
2023-06-30T17:59:17.361Z,3.60
2023-06-30T18:03:18.972Z,2.50
2023-06-30T18:07:19.979Z,7.03
2023-06-30T18:11:21.194Z,3.83
2023-06-30T18:15:22.474Z,2.23
2023-06-30T18:19:23.932Z,3.63
2023-06-30T18:23:26.294Z,5.00
2023-06-30T18:27:27.390Z,5.33
2023-06-30T18:31:28.550Z,3.93
2023-06-30T18:35:30.002Z,2.53
2023-06-30T18:39:31.046Z,3.10
2023-06-30T18:43:32.257Z,2.47
2023-06-30T18:47:33.448Z,2.53
2023-06-30T18:51:34.856Z,3.97
2023-06-30T18:55:36.030Z,2.50
2023-06-30T18:59:37.212Z,4.07
2023-06-30T19:03:38.662Z,3.67
2023-06-30T19:07:40.267Z,3.27
2023-06-30T19:11:41.312Z,4.37
2023-06-30T19:15:42.431Z,2.10
2023-06-30T19:19:45.301Z,5.93
2023-06-30T19:23:46.467Z,2.50
2023-06-30T19:27:47.486Z,4.40
2023-06-30T19:31:48.864Z,3.23
2023-06-30T19:35:52.059Z,3.33
2023-06-30T19:39:53.252Z,3.13
2023-06-30T19:43:54.658Z,3.20
2023-06-30T19:47:55.894Z,2.47
2023-06-30T19:51:58.894Z,2.13
2023-06-30T19:56:00.089Z,2.97
2023-06-30T20:00:01.227Z,7.20
2023-06-30T20:04:02.637Z,3.37
2023-06-30T20:08:04.258Z,5.07
2023-06-30T20:12:08.696Z,4.07
2023-06-30T20:16:09.919Z,3.13
2023-06-30T20:20:13.246Z,3.33
2023-06-30T20:24:15.832Z,5.67
2023-06-30T20:28:18.752Z,3.93
2023-06-30T20:32:20.588Z,3.40
2023-06-30T20:36:21.825Z,5.57
2023-06-30T20:40:24.030Z,4.10
2023-06-30T20:44:25.701Z,5.07
2023-06-30T20:48:26.793Z,7.30
2023-06-30T20:52:27.801Z,3.07
2023-06-30T20:56:28.930Z,3.33
2023-06-30T21:00:30.588Z,3.37
2023-06-30T21:04:31.768Z,3.07
2023-06-30T21:08:32.939Z,3.90
2023-06-30T21:12:36.002Z,3.40
2023-06-30T21:16:37.259Z,3.60
2023-06-30T21:20:38.353Z,3.77
2023-06-30T21:24:39.512Z,3.63
2023-06-30T21:28:40.657Z,5.87
2023-06-30T21:32:41.988Z,4.30
2023-06-30T21:36:43.124Z,4.97
2023-06-30T21:40:44.223Z,5.07
2023-06-30T21:44:45.653Z,6.83
2023-06-30T21:48:49.091Z,9.50
2023-06-30T21:52:50.349Z,6.10
2023-06-30T21:56:51.506Z,8.13
2023-06-30T22:00:52.920Z,4.73
2023-06-30T22:04:54.281Z,8.03
2023-06-30T22:08:57.532Z,4.50
2023-06-30T22:12:58.353Z,5.93
2023-06-30T22:16:59.521Z,4.27
2023-06-30T22:21:00.540Z,4.33
2023-06-30T22:25:01.815Z,3.93
2023-06-30T22:29:02.954Z,5.20
2023-06-30T22:33:04.393Z,6.03
2023-06-30T22:37:05.847Z,5.90
2023-06-30T22:41:07.103Z,6.37
2023-06-30T22:45:08.841Z,7.80
2023-06-30T22:49:09.842Z,5.70
2023-06-30T22:53:11.490Z,5.33
2023-06-30T22:57:12.618Z,5.97
2023-06-30T23:01:13.831Z,4.83
2023-06-30T23:05:14.955Z,4.80
2023-06-30T23:09:16.114Z,5.50
2023-06-30T23:13:17.403Z,6.20
2023-06-30T23:17:20.418Z,6.90
2023-06-30T23:21:21.680Z,5.60
2023-06-30T23:25:23.287Z,5.43
2023-06-30T23:29:26.308Z,6.07
2023-06-30T23:33:28.264Z,4.70
2023-06-30T23:37:29.417Z,5.57
2023-06-30T23:41:30.440Z,5.37
2023-06-30T23:45:31.458Z,5.07
2023-06-30T23:49:32.681Z,5.40
2023-06-30T23:53:33.809Z,5.23
2023-06-30T23:57:34.778Z,5.77
